sensor_id;sensor_type;location;lat;lon;timestamp;pressure;altitude;pressure_sealevel;temperature;humidity
51439;BME280;38816;51.142;-0.974;2023-05-19T00:01:28;101199.69;;;11.08;100.00
51439;BME280;38816;51.142;-0.974;2023-05-19T00:03:55;101197.84;;;11.04;100.00
51439;BME280;38816;51.142;-0.974;2023-05-19T00:06:31;101197.75;;;11.01;100.00
51439;BME280;38816;51.142;-0.974;2023-05-19T00:08:59;101202.88;;;11.01;100.00
51439;BME280;38816;51.142;-0.974;2023-05-19T00:11:25;101195.00;;;10.95;100.00
51439;BME280;38816;51.142;-0.974;2023-05-19T00:13:53;101189.72;;;10.90;100.00
51439;BME280;38816;51.142;-0.974;2023-05-19T00:16:19;101199.09;;;10.89;100.00
51439;BME280;38816;51.142;-0.974;2023-05-19T00:18:46;101193.88;;;10.86;100.00
51439;BME280;38816;51.142;-0.974;2023-05-19T00:21:12;101190.25;;;10.80;100.00
51439;BME280;38816;51.142;-0.974;2023-05-19T00:23:37;101186.50;;;10.70;100.00
51439;BME280;38816;51.142;-0.974;2023-05-19T00:26:03;101195.81;;;10.67;100.00
51439;BME280;38816;51.142;-0.974;2023-05-19T00:28:28;101180.03;;;10.54;100.00
51439;BME280;38816;51.142;-0.974;2023-05-19T00:30:54;101193.78;;;10.56;100.00
51439;BME280;38816;51.142;-0.974;2023-05-19T00:33:20;101192.81;;;10.53;100.00
51439;BME280;38816;51.142;-0.974;2023-05-19T00:35:45;101189.97;;;10.44;100.00
51439;BME280;38816;51.142;-0.974;2023-05-19T00:38:11;101193.31;;;10.41;100.00
51439;BME280;38816;51.142;-0.974;2023-05-19T00:40:36;101194.91;;;10.37;100.00
51439;BME280;38816;51.142;-0.974;2023-05-19T00:43:01;101201.59;;;10.32;100.00
51439;BME280;38816;51.142;-0.974;2023-05-19T00:45:29;101202.31;;;10.28;100.00
51439;BME280;38816;51.142;-0.974;2023-05-19T00:47:54;101194.31;;;10.21;100.00
51439;BME280;38816;51.142;-0.974;2023-05-19T00:50:20;101197.59;;;10.17;100.00
51439;BME280;38816;51.142;-0.974;2023-05-19T00:52:45;101194.06;;;10.13;100.00
51439;BME280;38816;51.142;-0.974;2023-05-19T00:55:11;101200.03;;;10.12;100.00
51439;BME280;38816;51.142;-0.974;2023-05-19T00:57:38;101191.13;;;10.02;100.00
51439;BME280;38816;51.142;-0.974;2023-05-19T01:00:03;101200.59;;;10.03;100.00
51439;BME280;38816;51.142;-0.974;2023-05-19T01:02:29;101193.41;;;9.93;100.00
51439;BME280;38816;51.142;-0.974;2023-05-19T01:04:56;101201.97;;;9.94;100.00
51439;BME280;38816;51.142;-0.974;2023-05-19T01:07:22;101198.38;;;9.88;100.00
51439;BME280;38816;51.142;-0.974;2023-05-19T01:09:48;101188.84;;;9.86;100.00
51439;BME280;38816;51.142;-0.974;2023-05-19T01:12:14;101182.66;;;9.79;100.00
51439;BME280;38816;51.142;-0.974;2023-05-19T01:14:41;101186.09;;;9.80;100.00
51439;BME280;38816;51.142;-0.974;2023-05-19T01:17:20;101186.88;;;9.77;100.00
51439;BME280;38816;51.142;-0.974;2023-05-19T01:20:07;101179.75;;;9.70;100.00
51439;BME280;38816;51.142;-0.974;2023-05-19T01:25:57;101180.69;;;9.72;100.00
51439;BME280;38816;51.142;-0.974;2023-05-19T01:31:09;101187.31;;;9.66;100.00
51439;BME280;38816;51.142;-0.974;2023-05-19T01:33:36;101185.59;;;9.66;100.00
51439;BME280;38816;51.142;-0.974;2023-05-19T01:36:04;101186.31;;;9.62;100.00
51439;BME280;38816;51.142;-0.974;2023-05-19T01:38:33;101185.66;;;9.68;100.00
51439;BME280;38816;51.142;-0.974;2023-05-19T01:40:59;101188.34;;;9.71;100.00
51439;BME280;38816;51.142;-0.974;2023-05-19T01:43:25;101187.63;;;9.75;100.00
51439;BME280;38816;51.142;-0.974;2023-05-19T01:45:52;101174.75;;;9.73;100.00
51439;BME280;38816;51.142;-0.974;2023-05-19T01:48:18;101179.38;;;9.83;100.00
51439;BME280;38816;51.142;-0.974;2023-05-19T01:50:44;101176.13;;;9.89;100.00
51439;BME280;38816;51.142;-0.974;2023-05-19T01:53:10;101179.69;;;9.93;100.00
51439;BME280;38816;51.142;-0.974;2023-05-19T01:55:43;101172.72;;;9.90;100.00
51439;BME280;38816;51.142;-0.974;2023-05-19T02:01:24;101177.63;;;10.08;100.00
51439;BME280;38816;51.142;-0.974;2023-05-19T02:11:54;101169.75;;;10.27;100.00
51439;BME280;38816;51.142;-0.974;2023-05-19T02:14:36;101173.22;;;10.29;100.00
51439;BME280;38816;51.142;-0.974;2023-05-19T02:17:03;101169.81;;;10.30;100.00
51439;BME280;38816;51.142;-0.974;2023-05-19T02:19:31;101168.13;;;10.31;100.00
51439;BME280;38816;51.142;-0.974;2023-05-19T02:21:57;101156.72;;;10.23;100.00
51439;BME280;38816;51.142;-0.974;2023-05-19T02:24:23;101161.22;;;10.28;100.00
51439;BME280;38816;51.142;-0.974;2023-05-19T02:26:52;101152.34;;;10.20;100.00
51439;BME280;38816;51.142;-0.974;2023-05-19T02:29:21;101155.84;;;10.22;100.00
51439;BME280;38816;51.142;-0.974;2023-05-19T02:31:46;101166.91;;;10.21;100.00
51439;BME280;38816;51.142;-0.974;2023-05-19T02:34:12;101159.78;;;10.12;100.00
51439;BME280;38816;51.142;-0.974;2023-05-19T02:36:40;101161.72;;;10.18;100.00
51439;BME280;38816;51.142;-0.974;2023-05-19T02:39:07;101170.28;;;10.19;100.00
51439;BME280;38816;51.142;-0.974;2023-05-19T02:41:33;101173.63;;;10.16;100.00
51439;BME280;38816;51.142;-0.974;2023-05-19T02:43:59;101160.47;;;10.07;100.00
51439;BME280;38816;51.142;-0.974;2023-05-19T02:46:24;101165.72;;;10.10;100.00
51439;BME280;38816;51.142;-0.974;2023-05-19T02:48:50;101177.56;;;10.06;100.00
51439;BME280;38816;51.142;-0.974;2023-05-19T02:51:15;101175.56;;;9.98;100.00
51439;BME280;38816;51.142;-0.974;2023-05-19T02:53:41;101158.13;;;9.87;100.00
51439;BME280;38816;51.142;-0.974;2023-05-19T02:56:06;101177.94;;;9.92;100.00
51439;BME280;38816;51.142;-0.974;2023-05-19T02:58:32;101181.25;;;9.89;100.00
51439;BME280;38816;51.142;-0.974;2023-05-19T03:00:57;101182.97;;;9.88;100.00
51439;BME280;38816;51.142;-0.974;2023-05-19T03:03:23;101180.28;;;9.85;100.00
51439;BME280;38816;51.142;-0.974;2023-05-19T03:05:48;101181.97;;;9.85;100.00
51439;BME280;38816;51.142;-0.974;2023-05-19T03:08:13;101178.53;;;9.84;100.00
51439;BME280;38816;51.142;-0.974;2023-05-19T03:10:39;101167.13;;;9.76;100.00
51439;BME280;38816;51.142;-0.974;2023-05-19T03:13:04;101168.97;;;9.80;100.00
51439;BME280;38816;51.142;-0.974;2023-05-19T03:15:30;101161.91;;;9.73;100.00
51439;BME280;38816;51.142;-0.974;2023-05-19T03:17:56;101166.09;;;9.71;100.00
51439;BME280;38816;51.142;-0.974;2023-05-19T03:20:22;101152.13;;;9.63;100.00
51439;BME280;38816;51.142;-0.974;2023-05-19T03:22:48;101163.25;;;9.63;100.00
51439;BME280;38816;51.142;-0.974;2023-05-19T03:25:14;101161.44;;;9.59;100.00
51439;BME280;38816;51.142;-0.974;2023-05-19T03:27:39;101167.31;;;9.57;100.00
51439;BME280;38816;51.142;-0.974;2023-05-19T03:30:05;101168.06;;;9.54;100.00
51439;BME280;38816;51.142;-0.974;2023-05-19T03:32:30;101159.34;;;9.49;100.00
51439;BME280;38816;51.142;-0.974;2023-05-19T03:35:02;101161.16;;;9.52;100.00
51439;BME280;38816;51.142;-0.974;2023-05-19T03:37:28;101170.59;;;9.53;100.00
51439;BME280;38816;51.142;-0.974;2023-05-19T03:39:53;101164.63;;;9.54;100.00
51439;BME280;38816;51.142;-0.974;2023-05-19T03:42:19;101163.75;;;9.53;100.00
51439;BME280;38816;51.142;-0.974;2023-05-19T03:44:44;101158.59;;;9.52;100.00
51439;BME280;38816;51.142;-0.974;2023-05-19T03:47:10;101156.84;;;9.51;100.00
51439;BME280;38816;51.142;-0.974;2023-05-19T03:49:35;101153.28;;;9.47;100.00
51439;BME280;38816;51.142;-0.974;2023-05-19T03:52:01;101153.16;;;9.44;100.00
51439;BME280;38816;51.142;-0.974;2023-05-19T03:54:27;101150.31;;;9.36;100.00
51439;BME280;38816;51.142;-0.974;2023-05-19T03:56:53;101164.94;;;9.37;100.00
51439;BME280;38816;51.142;-0.974;2023-05-19T03:59:18;101161.31;;;9.32;100.00
51439;BME280;38816;51.142;-0.974;2023-05-19T04:01:44;101174.03;;;9.29;100.00
51439;BME280;38816;51.142;-0.974;2023-05-19T04:04:10;101175.47;;;9.23;100.00
51439;BME280;38816;51.142;-0.974;2023-05-19T04:06:36;101162.28;;;9.12;100.00
51439;BME280;38816;51.142;-0.974;2023-05-19T04:09:02;101151.81;;;9.06;100.00
51439;BME280;38816;51.142;-0.974;2023-05-19T04:11:35;101167.53;;;9.15;100.00
51439;BME280;38816;51.142;-0.974;2023-05-19T04:14:01;101169.16;;;9.13;100.00
51439;BME280;38816;51.142;-0.974;2023-05-19T04:16:26;101170.00;;;9.13;100.00
51439;BME280;38816;51.142;-0.974;2023-05-19T04:18:52;101163.78;;;9.07;100.00
51439;BME280;38816;51.142;-0.974;2023-05-19T04:21:17;101166.50;;;9.10;100.00
51439;BME280;38816;51.142;-0.974;2023-05-19T04:23:42;101174.44;;;9.18;100.00
51439;BME280;38816;51.142;-0.974;2023-05-19T04:26:08;101175.47;;;9.23;100.00
51439;BME280;38816;51.142;-0.974;2023-05-19T04:28:33;101179.75;;;9.22;100.00
51439;BME280;38816;51.142;-0.974;2023-05-19T04:31:03;101178.00;;;9.21;100.00
51439;BME280;38816;51.142;-0.974;2023-05-19T04:33:28;101170.09;;;9.15;100.00
51439;BME280;38816;51.142;-0.974;2023-05-19T04:35:53;101171.84;;;9.16;100.00
51439;BME280;38816;51.142;-0.974;2023-05-19T04:38:19;101171.88;;;9.18;100.00
51439;BME280;38816;51.142;-0.974;2023-05-19T04:40:46;101179.81;;;9.24;100.00
51439;BME280;38816;51.142;-0.974;2023-05-19T04:43:14;101173.88;;;9.25;100.00
51439;BME280;38816;51.142;-0.974;2023-05-19T04:45:40;101156.66;;;9.22;100.00
51439;BME280;38816;51.142;-0.974;2023-05-19T04:48:06;101170.63;;;9.30;100.00
51439;BME280;38816;51.142;-0.974;2023-05-19T04:50:32;101167.31;;;9.33;100.00
51439;BME280;38816;51.142;-0.974;2023-05-19T04:52:59;101153.63;;;9.32;100.00
51439;BME280;38816;51.142;-0.974;2023-05-19T04:55:24;101153.72;;;9.35;100.00
51439;BME280;38816;51.142;-0.974;2023-05-19T04:57:50;101147.66;;;9.33;100.00
51439;BME280;38816;51.142;-0.974;2023-05-19T05:00:15;101139.19;;;9.36;100.00
51439;BME280;38816;51.142;-0.974;2023-05-19T05:02:41;101153.09;;;9.41;100.00
51439;BME280;38816;51.142;-0.974;2023-05-19T05:05:07;101149.63;;;9.41;100.00
51439;BME280;38816;51.142;-0.974;2023-05-19T05:07:33;101139.34;;;9.41;100.00
51439;BME280;38816;51.142;-0.974;2023-05-19T05:09:58;101132.47;;;9.39;100.00
51439;BME280;38816;51.142;-0.974;2023-05-19T05:12:24;101142.09;;;9.45;100.00
51439;BME280;38816;51.142;-0.974;2023-05-19T05:14:50;101148.53;;;9.58;100.00
51439;BME280;38816;51.142;-0.974;2023-05-19T05:17:15;101152.28;;;9.68;100.00
51439;BME280;38816;51.142;-0.974;2023-05-19T05:19:41;101166.53;;;9.83;100.00
51439;BME280;38816;51.142;-0.974;2023-05-19T05:22:07;101162.31;;;9.85;100.00
51439;BME280;38816;51.142;-0.974;2023-05-19T05:24:33;101156.25;;;9.83;100.00
51439;BME280;38816;51.142;-0.974;2023-05-19T05:26:58;101152.75;;;9.81;100.00
51439;BME280;38816;51.142;-0.974;2023-05-19T05:29:24;101147.69;;;9.83;100.00
51439;BME280;38816;51.142;-0.974;2023-05-19T05:31:49;101150.44;;;9.89;100.00
51439;BME280;38816;51.142;-0.974;2023-05-19T05:34:15;101158.38;;;9.95;100.00
51439;BME280;38816;51.142;-0.974;2023-05-19T05:36:40;101148.03;;;9.94;100.00
51439;BME280;38816;51.142;-0.974;2023-05-19T05:39:06;101162.13;;;10.05;100.00
51439;BME280;38816;51.142;-0.974;2023-05-19T05:41:31;101152.22;;;10.17;100.00
51439;BME280;38816;51.142;-0.974;2023-05-19T05:44:03;101163.06;;;10.32;100.00
51439;BME280;38816;51.142;-0.974;2023-05-19T05:46:28;101154.81;;;10.43;100.00
51439;BME280;38816;51.142;-0.974;2023-05-19T05:48:54;101154.47;;;10.59;100.00
51439;BME280;38816;51.142;-0.974;2023-05-19T05:51:21;101163.44;;;10.72;100.00
51439;BME280;38816;51.142;-0.974;2023-05-19T05:53:51;101157.59;;;10.77;100.00
51439;BME280;38816;51.142;-0.974;2023-05-19T05:56:17;101147.38;;;10.80;100.00
51439;BME280;38816;51.142;-0.974;2023-05-19T05:58:42;101158.88;;;10.92;100.00
51439;BME280;38816;51.142;-0.974;2023-05-19T06:01:08;101152.81;;;10.89;100.00
51439;BME280;38816;51.142;-0.974;2023-05-19T06:03:40;101137.72;;;10.72;100.00
51439;BME280;38816;51.142;-0.974;2023-05-19T06:06:06;101147.22;;;10.74;100.00
51439;BME280;38816;51.142;-0.974;2023-05-19T06:08:32;101140.97;;;10.66;100.00
51439;BME280;38816;51.142;-0.974;2023-05-19T06:10:57;101122.88;;;10.63;100.00
51439;BME280;38816;51.142;-0.974;2023-05-19T06:13:23;101140.72;;;10.85;100.00
51439;BME280;38816;51.142;-0.974;2023-05-19T06:15:50;101132.59;;;11.02;100.00
51439;BME280;38816;51.142;-0.974;2023-05-19T06:18:16;101140.31;;;11.32;100.00
51439;BME280;38816;51.142;-0.974;2023-05-19T06:20:41;101125.28;;;11.47;100.00
51439;BME280;38816;51.142;-0.974;2023-05-19T06:23:07;101140.53;;;11.71;100.00
51439;BME280;38816;51.142;-0.974;2023-05-19T06:25:32;101125.31;;;11.82;100.00
51439;BME280;38816;51.142;-0.974;2023-05-19T06:27:57;101125.63;;;11.93;100.00
51439;BME280;38816;51.142;-0.974;2023-05-19T06:30:23;101123.97;;;11.95;100.00
51439;BME280;38816;51.142;-0.974;2023-05-19T06:32:48;101130.34;;;12.09;100.00
51439;BME280;38816;51.142;-0.974;2023-05-19T06:35:13;101132.38;;;12.22;100.00
51439;BME280;38816;51.142;-0.974;2023-05-19T06:37:39;101121.25;;;12.25;100.00
51439;BME280;38816;51.142;-0.974;2023-05-19T06:40:05;101135.56;;;12.48;100.00
51439;BME280;38816;51.142;-0.974;2023-05-19T06:42:30;101132.34;;;12.58;100.00
51439;BME280;38816;51.142;-0.974;2023-05-19T06:44:56;101144.69;;;12.72;100.00
51439;BME280;38816;51.142;-0.974;2023-05-19T06:47:21;101132.63;;;12.71;100.00
51439;BME280;38816;51.142;-0.974;2023-05-19T06:49:47;101151.69;;;12.79;100.00
51439;BME280;38816;51.142;-0.974;2023-05-19T06:52:19;101157.75;;;12.79;100.00
51439;BME280;38816;51.142;-0.974;2023-05-19T06:54:44;101158.66;;;12.81;100.00
51439;BME280;38816;51.142;-0.974;2023-05-19T06:57:10;101161.13;;;12.75;100.00
51439;BME280;38816;51.142;-0.974;2023-05-19T06:59:35;101161.25;;;12.81;100.00
51439;BME280;38816;51.142;-0.974;2023-05-19T07:02:01;101163.25;;;12.95;100.00
51439;BME280;38816;51.142;-0.974;2023-05-19T07:04:28;101167.94;;;13.14;100.00
51439;BME280;38816;51.142;-0.974;2023-05-19T07:06:54;101141.41;;;13.20;100.00
51439;BME280;38816;51.142;-0.974;2023-05-19T07:09:19;101154.84;;;13.46;100.00
51439;BME280;38816;51.142;-0.974;2023-05-19T07:11:45;101142.94;;;13.52;100.00
51439;BME280;38816;51.142;-0.974;2023-05-19T07:14:10;101155.25;;;13.67;100.00
51439;BME280;38816;51.142;-0.974;2023-05-19T07:16:35;101159.88;;;13.83;100.00
51439;BME280;38816;51.142;-0.974;2023-05-19T07:19:01;101178.06;;;13.91;100.00
51439;BME280;38816;51.142;-0.974;2023-05-19T07:21:26;101184.97;;;13.90;100.00
51439;BME280;38816;51.142;-0.974;2023-05-19T07:23:51;101171.84;;;13.78;100.00
51439;BME280;38816;51.142;-0.974;2023-05-19T07:26:17;101184.78;;;13.80;100.00
51439;BME280;38816;51.142;-0.974;2023-05-19T07:28:42;101169.09;;;13.71;100.00
51439;BME280;38816;51.142;-0.974;2023-05-19T07:31:08;101164.81;;;13.71;100.00
51439;BME280;38816;51.142;-0.974;2023-05-19T07:33:33;101173.41;;;13.70;100.00
51439;BME280;38816;51.142;-0.974;2023-05-19T07:35:59;101165.66;;;13.72;100.00
51439;BME280;38816;51.142;-0.974;2023-05-19T07:38:24;101169.22;;;13.77;100.00
51439;BME280;38816;51.142;-0.974;2023-05-19T07:40:50;101171.72;;;13.72;100.00
51439;BME280;38816;51.142;-0.974;2023-05-19T07:43:15;101168.84;;;13.57;100.00
51439;BME280;38816;51.142;-0.974;2023-05-19T07:45:40;101186.09;;;13.58;100.00
51439;BME280;38816;51.142;-0.974;2023-05-19T07:48:06;101175.66;;;13.53;100.00
51439;BME280;38816;51.142;-0.974;2023-05-19T07:50:31;101163.69;;;13.58;100.00
51439;BME280;38816;51.142;-0.974;2023-05-19T07:52:57;101171.84;;;13.78;100.00
51439;BME280;38816;51.142;-0.974;2023-05-19T07:55:22;101166.94;;;13.93;100.00
51439;BME280;38816;51.142;-0.974;2023-05-19T07:57:48;101178.59;;;14.22;100.00
51439;BME280;38816;51.142;-0.974;2023-05-19T08:00:14;101173.16;;;14.55;100.00
51439;BME280;38816;51.142;-0.974;2023-05-19T08:02:40;101175.16;;;14.74;100.00
51439;BME280;38816;51.142;-0.974;2023-05-19T08:05:06;101167.41;;;14.76;100.00
51439;BME280;38816;51.142;-0.974;2023-05-19T08:07:33;101175.97;;;14.72;100.00
51439;BME280;38816;51.142;-0.974;2023-05-19T08:09:58;101188.16;;;14.79;100.00
51439;BME280;38816;51.142;-0.974;2023-05-19T08:12:24;101185.56;;;14.80;100.00
51439;BME280;38816;51.142;-0.974;2023-05-19T08:14:49;101190.94;;;14.91;100.00
51439;BME280;38816;51.142;-0.974;2023-05-19T08:17:15;101191.13;;;15.08;100.00
51439;BME280;38816;51.142;-0.974;2023-05-19T08:19:40;101181.84;;;15.25;100.00
51439;BME280;38816;51.142;-0.974;2023-05-19T08:22:05;101189.31;;;15.70;99.00
51439;BME280;38816;51.142;-0.974;2023-05-19T08:24:31;101191.41;;;16.04;89.87
51439;BME280;38816;51.142;-0.974;2023-05-19T08:26:59;101182.97;;;16.34;90.59
51439;BME280;38816;51.142;-0.974;2023-05-19T08:29:24;101182.34;;;16.62;89.67
51439;BME280;38816;51.142;-0.974;2023-05-19T08:31:50;101171.22;;;16.76;90.32
51439;BME280;38816;51.142;-0.974;2023-05-19T08:34:17;101188.59;;;16.89;87.48
51439;BME280;38816;51.142;-0.974;2023-05-19T08:36:43;101166.94;;;16.88;87.24
51439;BME280;38816;51.142;-0.974;2023-05-19T08:39:09;101188.69;;;17.03;83.74
51439;BME280;38816;51.142;-0.974;2023-05-19T08:41:35;101184.34;;;17.05;86.03
51439;BME280;38816;51.142;-0.974;2023-05-19T08:44:00;101185.34;;;17.31;88.34
51439;BME280;38816;51.142;-0.974;2023-05-19T08:46:27;101180.16;;;17.42;88.46
51439;BME280;38816;51.142;-0.974;2023-05-19T08:48:57;101179.34;;;17.54;88.25
51439;BME280;38816;51.142;-0.974;2023-05-19T08:51:49;101190.69;;;17.76;89.24
51439;BME280;38816;51.142;-0.974;2023-05-19T08:54:17;101188.97;;;17.82;88.83
51439;BME280;38816;51.142;-0.974;2023-05-19T08:56:45;101187.25;;;17.87;86.99
51439;BME280;38816;51.142;-0.974;2023-05-19T08:59:15;101188.13;;;18.00;88.28
51439;BME280;38816;51.142;-0.974;2023-05-19T09:01:44;101181.22;;;18.16;90.43
51439;BME280;38816;51.142;-0.974;2023-05-19T09:04:10;101177.75;;;18.25;87.80
51439;BME280;38816;51.142;-0.974;2023-05-19T09:06:36;101189.03;;;18.20;84.99
51439;BME280;38816;51.142;-0.974;2023-05-19T09:09:05;101179.47;;;18.22;88.38
51439;BME280;38816;51.142;-0.974;2023-05-19T09:11:32;101184.69;;;18.21;87.98
51439;BME280;38816;51.142;-0.974;2023-05-19T09:13:57;101178.63;;;18.25;88.22
51439;BME280;38816;51.142;-0.974;2023-05-19T09:16:23;101166.47;;;18.24;89.77
51439;BME280;38816;51.142;-0.974;2023-05-19T09:18:56;101161.25;;;18.33;89.56
51439;BME280;38816;51.142;-0.974;2023-05-19T09:21:28;101165.59;;;18.34;89.56
51439;BME280;38816;51.142;-0.974;2023-05-19T09:23:58;101148.25;;;18.30;90.54
51439;BME280;38816;51.142;-0.974;2023-05-19T09:26:38;101148.22;;;18.36;91.00
51439;BME280;38816;51.142;-0.974;2023-05-19T09:29:11;101147.34;;;18.40;91.49
51439;BME280;38816;51.142;-0.974;2023-05-19T09:31:36;101147.34;;;18.53;92.13
51439;BME280;38816;51.142;-0.974;2023-05-19T09:34:02;101131.72;;;18.56;90.81
51439;BME280;38816;51.142;-0.974;2023-05-19T09:36:28;101147.31;;;18.59;90.35
51439;BME280;38816;51.142;-0.974;2023-05-19T09:38:54;101162.97;;;18.57;91.36
51439;BME280;38816;51.142;-0.974;2023-05-19T09:41:19;101156.88;;;18.54;92.67
51439;BME280;38816;51.142;-0.974;2023-05-19T09:43:53;101158.59;;;18.55;92.52
51439;BME280;38816;51.142;-0.974;2023-05-19T09:46:23;101155.19;;;18.46;86.34
51439;BME280;38816;51.142;-0.974;2023-05-19T09:48:56;101150.84;;;18.35;88.27
51439;BME280;38816;51.142;-0.974;2023-05-19T09:51:22;101134.38;;;18.25;90.58
51439;BME280;38816;51.142;-0.974;2023-05-19T09:53:47;101150.00;;;18.28;90.93
51439;BME280;38816;51.142;-0.974;2023-05-19T09:56:13;101133.50;;;18.25;92.91
51439;BME280;38816;51.142;-0.974;2023-05-19T09:58:41;101143.03;;;18.33;91.75
51439;BME280;38816;51.142;-0.974;2023-05-19T10:01:07;101137.81;;;18.42;87.31
51439;BME280;38816;51.142;-0.974;2023-05-19T10:03:33;101165.53;;;18.63;80.51
51439;BME280;38816;51.142;-0.974;2023-05-19T10:06:00;101156.88;;;18.75;79.72
51439;BME280;38816;51.142;-0.974;2023-05-19T10:08:26;101163.78;;;18.88;76.42
51439;BME280;38816;51.142;-0.974;2023-05-19T10:10:54;101166.38;;;18.90;76.47
51439;BME280;38816;51.142;-0.974;2023-05-19T10:13:21;101161.22;;;18.71;74.16
51439;BME280;38816;51.142;-0.974;2023-05-19T10:15:48;101162.09;;;18.58;75.21
51439;BME280;38816;51.142;-0.974;2023-05-19T10:18:14;101158.63;;;18.45;76.88
51439;BME280;38816;51.142;-0.974;2023-05-19T10:20:42;101162.09;;;18.47;77.11
51439;BME280;38816;51.142;-0.974;2023-05-19T10:23:08;101168.16;;;18.65;78.84
51439;BME280;38816;51.142;-0.974;2023-05-19T10:25:34;101163.81;;;18.75;78.84
51439;BME280;38816;51.142;-0.974;2023-05-19T10:28:03;101172.44;;;18.93;81.88
51439;BME280;38816;51.142;-0.974;2023-05-19T10:30:36;101168.09;;;18.97;81.39
51439;BME280;38816;51.142;-0.974;2023-05-19T10:33:04;101168.06;;;19.06;71.12
51439;BME280;38816;51.142;-0.974;2023-05-19T10:46:39;101164.78;;;20.21;63.63
51439;BME280;38816;51.142;-0.974;2023-05-19T10:49:06;101160.63;;;19.98;62.32
51439;BME280;38816;51.142;-0.974;2023-05-19T10:51:32;101148.66;;;19.70;62.74
51439;BME280;38816;51.142;-0.974;2023-05-19T10:54:02;101160.09;;;19.43;63.44
51439;BME280;38816;51.142;-0.974;2023-05-19T10:56:30;101155.81;;;19.30;63.33
51439;BME280;38816;51.142;-0.974;2023-05-19T10:58:57;101159.28;;;19.30;65.26
51439;BME280;38816;51.142;-0.974;2023-05-19T11:01:29;101144.50;;;19.34;69.34
51439;BME280;38816;51.142;-0.974;2023-05-19T11:03:55;101146.13;;;19.52;70.77
51439;BME280;38816;51.142;-0.974;2023-05-19T11:06:28;101138.25;;;19.59;66.49
51439;BME280;38816;51.142;-0.974;2023-05-19T11:09:01;101132.19;;;19.59;63.58
51439;BME280;38816;51.142;-0.974;2023-05-19T11:11:54;101139.94;;;19.72;63.63
51439;BME280;38816;51.142;-0.974;2023-05-19T11:14:22;101126.91;;;19.71;62.49
51439;BME280;38816;51.142;-0.974;2023-05-19T11:16:49;101132.94;;;19.78;62.76
51439;BME280;38816;51.142;-0.974;2023-05-19T11:19:17;101115.56;;;19.78;64.36
51439;BME280;38816;51.142;-0.974;2023-05-19T11:21:48;101118.06;;;19.89;62.68
51439;BME280;38816;51.142;-0.974;2023-05-19T11:24:44;101130.22;;;19.90;62.04
51439;BME280;38816;51.142;-0.974;2023-05-19T11:27:28;101120.72;;;19.84;62.45
51439;BME280;38816;51.142;-0.974;2023-05-19T11:30:01;101102.41;;;19.90;62.40
51439;BME280;38816;51.142;-0.974;2023-05-19T11:32:34;101109.19;;;20.11;58.13
51439;BME280;38816;51.142;-0.974;2023-05-19T11:35:01;101097.00;;;20.12;58.91
51439;BME280;38816;51.142;-0.974;2023-05-19T11:37:30;101107.13;;;20.42;60.27
51439;BME280;38816;51.142;-0.974;2023-05-19T11:39:57;101102.56;;;20.67;56.40
51439;BME280;38816;51.142;-0.974;2023-05-19T11:42:22;101096.38;;;20.74;57.41
51439;BME280;38816;51.142;-0.974;2023-05-19T11:44:48;101094.25;;;21.03;62.61
51439;BME280;38816;51.142;-0.974;2023-05-19T11:47:14;101097.41;;;21.29;59.27
51439;BME280;38816;51.142;-0.974;2023-05-19T11:49:44;101087.59;;;21.46;57.72
51439;BME280;38816;51.142;-0.974;2023-05-19T11:52:12;101081.16;;;21.66;57.97
51439;BME280;38816;51.142;-0.974;2023-05-19T11:54:37;101091.94;;;22.02;56.54
51439;BME280;38816;51.142;-0.974;2023-05-19T11:57:03;101099.19;;;22.37;48.22
51439;BME280;38816;51.142;-0.974;2023-05-19T11:59:34;101084.69;;;22.65;47.72
51439;BME280;38816;51.142;-0.974;2023-05-19T12:04:37;101088.03;;;22.27;47.79
51439;BME280;38816;51.142;-0.974;2023-05-19T12:07:03;101086.75;;;21.98;49.60
51439;BME280;38816;51.142;-0.974;2023-05-19T12:09:28;101079.06;;;21.89;50.32
51439;BME280;38816;51.142;-0.974;2023-05-19T12:11:54;101066.97;;;21.82;49.93
51439;BME280;38816;51.142;-0.974;2023-05-19T12:14:19;101080.75;;;21.92;50.64
51439;BME280;38816;51.142;-0.974;2023-05-19T12:16:45;101084.31;;;21.88;50.33
51439;BME280;38816;51.142;-0.974;2023-05-19T12:19:10;101073.34;;;21.64;53.63
51439;BME280;38816;51.142;-0.974;2023-05-19T12:21:36;101084.91;;;21.51;55.11
51439;BME280;38816;51.142;-0.974;2023-05-19T12:24:02;101070.22;;;21.44;55.74
51439;BME280;38816;51.142;-0.974;2023-05-19T12:26:27;101084.16;;;21.43;52.90
51439;BME280;38816;51.142;-0.974;2023-05-19T12:28:53;101072.66;;;21.55;54.29
51439;BME280;38816;51.142;-0.974;2023-05-19T12:31:20;101079.34;;;21.72;54.42
51439;BME280;38816;51.142;-0.974;2023-05-19T12:33:48;101082.00;;;21.71;50.33
51439;BME280;38816;51.142;-0.974;2023-05-19T12:36:16;101080.25;;;21.71;53.16
51439;BME280;38816;51.142;-0.974;2023-05-19T12:38:42;101089.53;;;21.89;54.40
51439;BME280;38816;51.142;-0.974;2023-05-19T12:41:10;101076.13;;;22.06;52.91
51439;BME280;38816;51.142;-0.974;2023-05-19T12:43:36;101077.81;;;22.10;53.43
51439;BME280;38816;51.142;-0.974;2023-05-19T12:46:11;101073.84;;;21.89;53.20
51439;BME280;38816;51.142;-0.974;2023-05-19T12:48:42;101083.44;;;21.89;52.63
51439;BME280;38816;51.142;-0.974;2023-05-19T12:51:08;101076.09;;;22.12;48.76
51439;BME280;38816;51.142;-0.974;2023-05-19T12:53:35;101075.69;;;22.34;48.74
51439;BME280;38816;51.142;-0.974;2023-05-19T12:56:00;101077.34;;;22.38;50.16
51439;BME280;38816;51.142;-0.974;2023-05-19T12:58:26;101083.47;;;22.38;50.08
51439;BME280;38816;51.142;-0.974;2023-05-19T13:00:57;101074.53;;;22.48;53.40
51439;BME280;38816;51.142;-0.974;2023-05-19T13:03:23;101091.25;;;22.43;45.79
51439;BME280;38816;51.142;-0.974;2023-05-19T13:05:49;101091.59;;;22.23;47.52